sensor_id;sensor_type;location;lat;lon;timestamp;temperature;humidity
34143;DHT22;20419;10.658;106.724;2022-08-01T00:04:45;31.30;51.40
34143;DHT22;20419;10.658;106.724;2022-08-01T00:07:12;31.30;51.40
34143;DHT22;20419;10.658;106.724;2022-08-01T00:12:06;31.30;51.30
34143;DHT22;20419;10.658;106.724;2022-08-01T00:14:32;31.30;51.20
34143;DHT22;20419;10.658;106.724;2022-08-01T00:19:25;31.30;51.30
34143;DHT22;20419;10.658;106.724;2022-08-01T00:21:52;31.30;51.20
34143;DHT22;20419;10.658;106.724;2022-08-01T00:26:45;31.30;50.10
34143;DHT22;20419;10.658;106.724;2022-08-01T00:29:12;31.40;50.60
34143;DHT22;20419;10.658;106.724;2022-08-01T00:34:06;31.30;51.40
34143;DHT22;20419;10.658;106.724;2022-08-01T00:36:32;31.40;51.80
34143;DHT22;20419;10.658;106.724;2022-08-01T00:41:25;31.40;52.30
34143;DHT22;20419;10.658;106.724;2022-08-01T00:43:52;31.40;52.60
34143;DHT22;20419;10.658;106.724;2022-08-01T00:51:12;31.40;53.00
34143;DHT22;20419;10.658;106.724;2022-08-01T00:56:06;31.30;53.30
34143;DHT22;20419;10.658;106.724;2022-08-01T00:58:33;31.40;53.40
34143;DHT22;20419;10.658;106.724;2022-08-01T01:01:00;31.40;53.60
34143;DHT22;20419;10.658;106.724;2022-08-01T01:03:26;31.40;53.80
34143;DHT22;20419;10.658;106.724;2022-08-01T01:06:25;31.50;52.80
34143;DHT22;20419;10.658;106.724;2022-08-01T01:11:13;31.50;53.90
34143;DHT22;20419;10.658;106.724;2022-08-01T01:13:43;31.50;54.00
34143;DHT22;20419;10.658;106.724;2022-08-01T01:16:13;31.50;54.00
34143;DHT22;20419;10.658;106.724;2022-08-01T01:26:19;31.60;54.40
34143;DHT22;20419;10.658;106.724;2022-08-01T01:31:27;31.50;54.40
34143;DHT22;20419;10.658;106.724;2022-08-01T01:33:55;31.50;54.40
34143;DHT22;20419;10.658;106.724;2022-08-01T01:36:24;31.60;54.60
34143;DHT22;20419;10.658;106.724;2022-08-01T01:38:52;31.60;54.60
34143;DHT22;20419;10.658;106.724;2022-08-01T01:48:39;31.60;54.70
34143;DHT22;20419;10.658;106.724;2022-08-01T01:53:33;31.60;54.80
34143;DHT22;20419;10.658;106.724;2022-08-01T01:56:01;31.70;54.80
34143;DHT22;20419;10.658;106.724;2022-08-01T01:58:28;31.60;54.80
34143;DHT22;20419;10.658;106.724;2022-08-01T02:03:22;31.60;54.90
34143;DHT22;20419;10.658;106.724;2022-08-01T02:05:51;31.60;54.80
34143;DHT22;20419;10.658;106.724;2022-08-01T02:08:19;31.70;54.90
34143;DHT22;20419;10.658;106.724;2022-08-01T02:10:46;31.60;53.80
34143;DHT22;20419;10.658;106.724;2022-08-01T02:13:32;31.70;55.00
34143;DHT22;20419;10.658;106.724;2022-08-01T02:15:59;31.60;54.80
34143;DHT22;20419;10.658;106.724;2022-08-01T02:18:26;31.70;54.90
34143;DHT22;20419;10.658;106.724;2022-08-01T02:20:52;31.70;54.90
34143;DHT22;20419;10.658;106.724;2022-08-01T02:23:21;31.80;55.00
34143;DHT22;20419;10.658;106.724;2022-08-01T02:25:50;31.80;55.00
34143;DHT22;20419;10.658;106.724;2022-08-01T02:28:20;31.60;54.90
34143;DHT22;20419;10.658;106.724;2022-08-01T02:30:54;31.70;55.00
34143;DHT22;20419;10.658;106.724;2022-08-01T02:33:23;31.80;55.00
34143;DHT22;20419;10.658;106.724;2022-08-01T02:38:18;31.70;54.90
34143;DHT22;20419;10.658;106.724;2022-08-01T02:43:13;31.80;55.00
34143;DHT22;20419;10.658;106.724;2022-08-01T02:45:45;31.80;54.90
34143;DHT22;20419;10.658;106.724;2022-08-01T02:48:13;31.80;55.00
34143;DHT22;20419;10.658;106.724;2022-08-01T02:50:45;31.80;55.10
34143;DHT22;20419;10.658;106.724;2022-08-01T02:53:13;31.80;55.10
34143;DHT22;20419;10.658;106.724;2022-08-01T02:55:41;32.00;55.50
34143;DHT22;20419;10.658;106.724;2022-08-01T02:58:10;31.80;55.20
34143;DHT22;20419;10.658;106.724;2022-08-01T03:00:38;31.80;55.10
34143;DHT22;20419;10.658;106.724;2022-08-01T03:03:06;31.80;55.20
34143;DHT22;20419;10.658;106.724;2022-08-01T03:05:33;31.80;55.30
34143;DHT22;20419;10.658;106.724;2022-08-01T03:08:01;31.80;55.20
34143;DHT22;20419;10.658;106.724;2022-08-01T03:12:55;31.80;55.10
34143;DHT22;20419;10.658;106.724;2022-08-01T03:15:23;31.80;55.20
34143;DHT22;20419;10.658;106.724;2022-08-01T03:17:51;31.80;55.20
34143;DHT22;20419;10.658;106.724;2022-08-01T03:20:19;31.70;55.10
34143;DHT22;20419;10.658;106.724;2022-08-01T03:22:47;31.80;55.20
34143;DHT22;20419;10.658;106.724;2022-08-01T03:25:17;31.90;55.30
34143;DHT22;20419;10.658;106.724;2022-08-01T03:27:45;31.90;55.30
34143;DHT22;20419;10.658;106.724;2022-08-01T03:30:14;31.90;55.30
34143;DHT22;20419;10.658;106.724;2022-08-01T03:37:50;31.90;55.30
34143;DHT22;20419;10.658;106.724;2022-08-01T03:40:28;32.00;55.40
34143;DHT22;20419;10.658;106.724;2022-08-01T03:43:02;31.90;55.30
34143;DHT22;20419;10.658;106.724;2022-08-01T03:45:38;31.90;56.00
34143;DHT22;20419;10.658;106.724;2022-08-01T03:48:10;31.90;55.30
34143;DHT22;20419;10.658;106.724;2022-08-01T03:50:45;32.20;55.60
34143;DHT22;20419;10.658;106.724;2022-08-01T03:53:12;32.00;55.40
34143;DHT22;20419;10.658;106.724;2022-08-01T03:55:41;32.00;55.50
34143;DHT22;20419;10.658;106.724;2022-08-01T03:58:09;32.00;55.50
34143;DHT22;20419;10.658;106.724;2022-08-01T04:00:36;31.90;55.50
34143;DHT22;20419;10.658;106.724;2022-08-01T04:03:09;32.00;55.40
34143;DHT22;20419;10.658;106.724;2022-08-01T04:05:36;31.90;54.80
34143;DHT22;20419;10.658;106.724;2022-08-01T04:10:29;31.90;55.40
34143;DHT22;20419;10.658;106.724;2022-08-01T04:12:56;31.90;55.30
34143;DHT22;20419;10.658;106.724;2022-08-01T04:15:23;32.00;53.50
34143;DHT22;20419;10.658;106.724;2022-08-01T04:20:16;32.00;55.60
34143;DHT22;20419;10.658;106.724;2022-08-01T04:22:43;31.90;54.50
34143;DHT22;20419;10.658;106.724;2022-08-01T04:25:17;32.00;55.50
34143;DHT22;20419;10.658;106.724;2022-08-01T04:27:47;32.00;55.70
34143;DHT22;20419;10.658;106.724;2022-08-01T04:32:40;32.00;55.80
34143;DHT22;20419;10.658;106.724;2022-08-01T04:37:35;32.00;55.70
34143;DHT22;20419;10.658;106.724;2022-08-01T04:44:57;32.00;55.90
34143;DHT22;20419;10.658;106.724;2022-08-01T04:47:24;32.00;55.80
34143;DHT22;20419;10.658;106.724;2022-08-01T04:49:51;32.00;55.90
34143;DHT22;20419;10.658;106.724;2022-08-01T04:52:19;32.00;55.80
34143;DHT22;20419;10.658;106.724;2022-08-01T04:54:46;32.00;55.70
34143;DHT22;20419;10.658;106.724;2022-08-01T04:57:12;32.00;55.80
34143;DHT22;20419;10.658;106.724;2022-08-01T05:02:07;32.00;55.80
34143;DHT22;20419;10.658;106.724;2022-08-01T05:04:35;32.00;55.90
34143;DHT22;20419;10.658;106.724;2022-08-01T05:07:02;32.00;55.90
34143;DHT22;20419;10.658;106.724;2022-08-01T05:09:29;32.00;54.60
34143;DHT22;20419;10.658;106.724;2022-08-01T05:11:57;32.00;55.90
34143;DHT22;20419;10.658;106.724;2022-08-01T05:14:24;32.00;56.60
34143;DHT22;20419;10.658;106.724;2022-08-01T05:16:52;32.10;56.00
34143;DHT22;20419;10.658;106.724;2022-08-01T05:19:19;32.10;56.00
34143;DHT22;20419;10.658;106.724;2022-08-01T05:21:45;32.10;56.10
34143;DHT22;20419;10.658;106.724;2022-08-01T05:24:15;32.10;56.10
34143;DHT22;20419;10.658;106.724;2022-08-01T05:26:41;32.00;55.90
34143;DHT22;20419;10.658;106.724;2022-08-01T05:29:08;32.20;56.10
34143;DHT22;20419;10.658;106.724;2022-08-01T05:31:35;32.10;56.00
34143;DHT22;20419;10.658;106.724;2022-08-01T05:36:28;32.10;55.90
34143;DHT22;20419;10.658;106.724;2022-08-01T05:38:55;32.10;55.90
34143;DHT22;20419;10.658;106.724;2022-08-01T05:41:22;32.10;56.00
34143;DHT22;20419;10.658;106.724;2022-08-01T05:46:18;32.10;56.00
34143;DHT22;20419;10.658;106.724;2022-08-01T05:48:45;32.20;56.10
34143;DHT22;20419;10.658;106.724;2022-08-01T05:51:12;32.20;56.10
34143;DHT22;20419;10.658;106.724;2022-08-01T05:56:05;32.10;56.00
34143;DHT22;20419;10.658;106.724;2022-08-01T05:58:32;32.20;56.50
34143;DHT22;20419;10.658;106.724;2022-08-01T06:00:59;32.20;56.00
34143;DHT22;20419;10.658;106.724;2022-08-01T06:03:25;32.10;55.90
34143;DHT22;20419;10.658;106.724;2022-08-01T06:08:19;32.10;56.10
34143;DHT22;20419;10.658;106.724;2022-08-01T06:10:45;32.20;55.90
34143;DHT22;20419;10.658;106.724;2022-08-01T06:13:12;32.20;56.00
34143;DHT22;20419;10.658;106.724;2022-08-01T06:20:32;32.10;56.00
34143;DHT22;20419;10.658;106.724;2022-08-01T06:22:59;32.20;53.90
34143;DHT22;20419;10.658;106.724;2022-08-01T06:25:25;32.10;56.50
34143;DHT22;20419;10.658;106.724;2022-08-01T06:27:52;32.20;56.20
34143;DHT22;20419;10.658;106.724;2022-08-01T06:30:19;32.20;56.20
34143;DHT22;20419;10.658;106.724;2022-08-01T06:32:45;32.20;56.70
34143;DHT22;20419;10.658;106.724;2022-08-01T06:35:13;31.90;56.70
34143;DHT22;20419;10.658;106.724;2022-08-01T06:37:40;32.20;56.40
34143;DHT22;20419;10.658;106.724;2022-08-01T06:40:08;32.20;56.30
34143;DHT22;20419;10.658;106.724;2022-08-01T06:42:35;32.20;56.40
34143;DHT22;20419;10.658;106.724;2022-08-01T06:47:29;32.20;56.40
34143;DHT22;20419;10.658;106.724;2022-08-01T06:49:55;32.20;56.40
34143;DHT22;20419;10.658;106.724;2022-08-01T06:54:49;32.20;56.40
34143;DHT22;20419;10.658;106.724;2022-08-01T06:57:15;32.20;56.40
34143;DHT22;20419;10.658;106.724;2022-08-01T06:59:42;32.20;56.50
34143;DHT22;20419;10.658;106.724;2022-08-01T07:02:09;32.20;56.60
34143;DHT22;20419;10.658;106.724;2022-08-01T07:07:02;32.30;55.40
34143;DHT22;20419;10.658;106.724;2022-08-01T07:09:29;32.20;56.60
34143;DHT22;20419;10.658;106.724;2022-08-01T07:11:55;32.20;56.60
34143;DHT22;20419;10.658;106.724;2022-08-01T07:14:22;32.20;55.40
34143;DHT22;20419;10.658;106.724;2022-08-01T07:16:49;32.20;56.70
34143;DHT22;20419;10.658;106.724;2022-08-01T07:19:16;32.20;56.70
34143;DHT22;20419;10.658;106.724;2022-08-01T07:21:43;32.20;56.80
34143;DHT22;20419;10.658;106.724;2022-08-01T07:26:36;32.20;56.80
34143;DHT22;20419;10.658;106.724;2022-08-01T07:29:03;32.20;56.80
34143;DHT22;20419;10.658;106.724;2022-08-01T07:31:30;32.20;56.80
34143;DHT22;20419;10.658;106.724;2022-08-01T07:33:56;32.20;56.90
34143;DHT22;20419;10.658;106.724;2022-08-01T07:41:16;32.20;57.00
34143;DHT22;20419;10.658;106.724;2022-08-01T07:43:43;32.30;57.10
34143;DHT22;20419;10.658;106.724;2022-08-01T07:46:09;32.20;57.00
34143;DHT22;20419;10.658;106.724;2022-08-01T07:51:03;32.20;54.90
34143;DHT22;20419;10.658;106.724;2022-08-01T07:55:56;32.20;57.10
34143;DHT22;20419;10.658;106.724;2022-08-01T08:00:49;32.20;57.20
34143;DHT22;20419;10.658;106.724;2022-08-01T08:03:16;32.20;57.20
34143;DHT22;20419;10.658;106.724;2022-08-01T08:08:09;32.20;56.30
34143;DHT22;20419;10.658;106.724;2022-08-01T08:10:40;32.20;57.30
34143;DHT22;20419;10.658;106.724;2022-08-01T08:13:06;32.20;57.30
34143;DHT22;20419;10.658;106.724;2022-08-01T08:15:33;32.20;57.30
34143;DHT22;20419;10.658;106.724;2022-08-01T08:17:59;32.20;57.30
34143;DHT22;20419;10.658;106.724;2022-08-01T08:20:26;32.20;57.30
34143;DHT22;20419;10.658;106.724;2022-08-01T08:22:55;32.20;57.30
34143;DHT22;20419;10.658;106.724;2022-08-01T08:25:25;32.20;57.30
34143;DHT22;20419;10.658;106.724;2022-08-01T08:27:53;32.20;57.40
34143;DHT22;20419;10.658;106.724;2022-08-01T08:30:19;32.20;57.30
34143;DHT22;20419;10.658;106.724;2022-08-01T08:32:46;32.20;57.30
34143;DHT22;20419;10.658;106.724;2022-08-01T08:37:40;32.30;57.50
34143;DHT22;20419;10.658;106.724;2022-08-01T08:40:07;32.20;57.30
34143;DHT22;20419;10.658;106.724;2022-08-01T08:42:34;32.20;57.50
34143;DHT22;20419;10.658;106.724;2022-08-01T08:45:01;32.20;57.40
34143;DHT22;20419;10.658;106.724;2022-08-01T08:47:27;32.20;57.50
34143;DHT22;20419;10.658;106.724;2022-08-01T08:52:24;32.20;57.50
34143;DHT22;20419;10.658;106.724;2022-08-01T08:59:44;32.30;57.60
34143;DHT22;20419;10.658;106.724;2022-08-01T09:02:11;32.20;57.60
34143;DHT22;20419;10.658;106.724;2022-08-01T09:04:38;32.30;57.60
34143;DHT22;20419;10.658;106.724;2022-08-01T09:09:32;32.30;57.60
34143;DHT22;20419;10.658;106.724;2022-08-01T09:11:59;32.30;57.60
34143;DHT22;20419;10.658;106.724;2022-08-01T09:14:26;32.30;57.60
34143;DHT22;20419;10.658;106.724;2022-08-01T09:19:23;32.20;57.60
34143;DHT22;20419;10.658;106.724;2022-08-01T09:21:57;32.20;56.00
34143;DHT22;20419;10.658;106.724;2022-08-01T09:26:50;32.30;57.60
34143;DHT22;20419;10.658;106.724;2022-08-01T09:31:45;32.20;57.60
34143;DHT22;20419;10.658;106.724;2022-08-01T09:34:12;32.20;57.70
34143;DHT22;20419;10.658;106.724;2022-08-01T09:36:53;32.30;57.70
34143;DHT22;20419;10.658;106.724;2022-08-01T09:39:26;32.30;57.80
34143;DHT22;20419;10.658;106.724;2022-08-01T09:41:53;32.20;57.70
34143;DHT22;20419;10.658;106.724;2022-08-01T09:46:51;32.20;57.70
34143;DHT22;20419;10.658;106.724;2022-08-01T09:49:39;32.30;57.80
34143;DHT22;20419;10.658;106.724;2022-08-01T09:52:17;32.20;55.80
34143;DHT22;20419;10.658;106.724;2022-08-01T09:54:54;32.20;57.90
34143;DHT22;20419;10.658;106.724;2022-08-01T09:57:22;32.30;57.90
34143;DHT22;20419;10.658;106.724;2022-08-01T09:59:51;32.30;55.60
34143;DHT22;20419;10.658;106.724;2022-08-01T10:04:48;32.30;58.00
34143;DHT22;20419;10.658;106.724;2022-08-01T10:07:15;32.30;58.00
34143;DHT22;20419;10.658;106.724;2022-08-01T10:09:43;32.30;58.00
34143;DHT22;20419;10.658;106.724;2022-08-01T10:12:10;32.30;58.10
34143;DHT22;20419;10.658;106.724;2022-08-01T10:14:38;32.30;58.10
34143;DHT22;20419;10.658;106.724;2022-08-01T10:19:31;32.30;58.10
34143;DHT22;20419;10.658;106.724;2022-08-01T10:21:58;32.20;58.00
34143;DHT22;20419;10.658;106.724;2022-08-01T10:29:19;32.30;58.20
34143;DHT22;20419;10.658;106.724;2022-08-01T10:31:46;32.30;58.20
34143;DHT22;20419;10.658;106.724;2022-08-01T10:34:16;32.20;58.10
34143;DHT22;20419;10.658;106.724;2022-08-01T10:36:45;32.30;58.20
34143;DHT22;20419;10.658;106.724;2022-08-01T10:39:13;32.20;58.20
34143;DHT22;20419;10.658;106.724;2022-08-01T10:41:40;32.30;58.20
34143;DHT22;20419;10.658;106.724;2022-08-01T10:46:34;32.30;58.10
34143;DHT22;20419;10.658;106.724;2022-08-01T10:51:29;32.40;56.70
34143;DHT22;20419;10.658;106.724;2022-08-01T10:53:57;32.40;58.50
34143;DHT22;20419;10.658;106.724;2022-08-01T10:56:27;32.30;56.80
34143;DHT22;20419;10.658;106.724;2022-08-01T11:01:31;32.40;58.70
34143;DHT22;20419;10.658;106.724;2022-08-01T11:08:52;32.30;58.80
34143;DHT22;20419;10.658;106.724;2022-08-01T11:11:20;32.40;58.80
34143;DHT22;20419;10.658;106.724;2022-08-01T11:16:26;32.40;58.90
34143;DHT22;20419;10.658;106.724;2022-08-01T11:21:20;32.30;58.90
34143;DHT22;20419;10.658;106.724;2022-08-01T11:26:17;32.30;58.90
34143;DHT22;20419;10.658;106.724;2022-08-01T11:28:45;32.40;59.00
34143;DHT22;20419;10.658;106.724;2022-08-01T11:38:43;32.40;59.00
34143;DHT22;20419;10.658;106.724;2022-08-01T11:44:22;32.40;57.50
34143;DHT22;20419;10.658;106.724;2022-08-01T11:54:24;32.40;59.20
34143;DHT22;20419;10.658;106.724;2022-08-01T11:59:17;32.40;59.20
34143;DHT22;20419;10.658;106.724;2022-08-01T12:01:44;32.30;57.50
34143;DHT22;20419;10.658;106.724;2022-08-01T12:06:37;32.40;59.20
34143;DHT22;20419;10.658;106.724;2022-08-01T12:13:58;32.30;58.20
34143;DHT22;20419;10.658;106.724;2022-08-01T12:16:24;32.40;57.50
34143;DHT22;20419;10.658;106.724;2022-08-01T12:18:51;32.30;56.60
34143;DHT22;20419;10.658;106.724;2022-08-01T12:21:17;32.30;55.80
34143;DHT22;20419;10.658;106.724;2022-08-01T12:26:12;32.10;54.40
34143;DHT22;20419;10.658;106.724;2022-08-01T12:28:39;32.20;53.70
34143;DHT22;20419;10.658;106.724;2022-08-01T12:31:06;32.10;53.10
34143;DHT22;20419;10.658;106.724;2022-08-01T12:33:33;32.10;50.90
34143;DHT22;20419;10.658;106.724;2022-08-01T12:38:26;32.00;51.70
34143;DHT22;20419;10.658;106.724;2022-08-01T12:40:53;32.10;49.50
34143;DHT22;20419;10.658;106.724;2022-08-01T12:43:21;31.80;50.70
34143;DHT22;20419;10.658;106.724;2022-08-01T12:48:17;32.00;50.10
34143;DHT22;20419;10.658;106.724;2022-08-01T12:53:11;32.00;49.40
34143;DHT22;20419;10.658;106.724;2022-08-01T12:58:08;31.90;46.90
34143;DHT22;20419;10.658;106.724;2022-08-01T13:00:36;31.90;48.60
34143;DHT22;20419;10.658;106.724;2022-08-01T13:10:36;31.90;47.60
34143;DHT22;20419;10.658;106.724;2022-08-01T13:20:31;31.80;46.50
34143;DHT22;20419;10.658;106.724;2022-08-01T13:25:24;31.80;46.20
34143;DHT22;20419;10.658;106.724;2022-08-01T13:33:00;31.60;45.70
34143;DHT22;20419;10.658;106.724;2022-08-01T13:35:27;31.70;45.00
34143;DHT22;20419;10.658;106.724;2022-08-01T13:37:54;31.70;45.60
34143;DHT22;20419;10.658;106.724;2022-08-01T13:40:23;31.60;45.30
34143;DHT22;20419;10.658;106.724;2022-08-01T13:47:44;31.50;44.80
34143;DHT22;20419;10.658;106.724;2022-08-01T13:55:03;31.50;44.40
34143;DHT22;20419;10.658;106.724;2022-08-01T13:57:30;31.50;44.40
34143;DHT22;20419;10.658;106.724;2022-08-01T13:59:57;31.50;44.20
34143;DHT22;20419;10.658;106.724;2022-08-01T14:02:27;31.50;44.00
34143;DHT22;20419;10.658;106.724;2022-08-01T14:04:54;31.50;43.90
34143;DHT22;20419;10.658;106.724;2022-08-01T14:09:48;31.60;43.90
34143;DHT22;20419;10.658;106.724;2022-08-01T14:14:41;31.40;43.50
34143;DHT22;20419;10.658;106.724;2022-08-01T14:17:08;31.30;43.40
34143;DHT22;20419;10.658;106.724;2022-08-01T14:19:34;31.40;43.30
34143;DHT22;20419;10.658;106.724;2022-08-01T14:22:01;31.40;43.20
34143;DHT22;20419;10.658;106.724;2022-08-01T14:24:28;31.40;42.40
34143;DHT22;20419;10.658;106.724;2022-08-01T14:26:55;31.40;42.90
34143;DHT22;20419;10.658;106.724;2022-08-01T14:29:21;31.40;43.00
34143;DHT22;20419;10.658;106.724;2022-08-01T14:31:48;31.30;42.90
34143;DHT22;20419;10.658;106.724;2022-08-01T14:34:15;31.30;43.00
34143;DHT22;20419;10.658;106.724;2022-08-01T14:36:42;31.40;42.80
34143;DHT22;20419;10.658;106.724;2022-08-01T14:39:08;31.40;42.80
34143;DHT22;20419;10.658;106.724;2022-08-01T14:44:02;31.30;42.50
34143;DHT22;20419;10.658;106.724;2022-08-01T14:46:30;31.30;42.60
34143;DHT22;20419;10.658;106.724;2022-08-01T14:51:23;31.30;42.60
34143;DHT22;20419;10.658;106.724;2022-08-01T14:53:49;31.30;42.40
34143;DHT22;20419;10.658;106.724;2022-08-01T14:56:17;31.30;42.40
34143;DHT22;20419;10.658;106.724;2022-08-01T15:01:10;31.20;42.10
34143;DHT22;20419;10.658;106.724;2022-08-01T15:03:37;31.20;42.10
34143;DHT22;20419;10.658;106.724;2022-08-01T15:06:04;31.30;42.00
34143;DHT22;20419;10.658;106.724;2022-08-01T15:13:26;31.20;41.80
34143;DHT22;20419;10.658;106.724;2022-08-01T15:15:53;31.20;41.70
34143;DHT22;20419;10.658;106.724;2022-08-01T15:18:20;31.20;41.90
34143;DHT22;20419;10.658;106.724;2022-08-01T15:20:46;31.20;42.20
34143;DHT22;20419;10.658;106.724;2022-08-01T15:35:27;31.40;44.30
34143;DHT22;20419;10.658;106.724;2022-08-01T15:37:53;31.40;44.60
34143;DHT22;20419;10.658;106.724;2022-08-01T15:42:47;31.40;45.30
34143;DHT22;20419;10.658;106.724;2022-08-01T15:47:44;31.50;46.00
34143;DHT22;20419;10.658;106.724;2022-08-01T15:50:10;31.50;46.20
34143;DHT22;20419;10.658;106.724;2022-08-01T15:52:37;31.50;46.40
34143;DHT22;20419;10.658;106.724;2022-08-01T15:55:04;31.50;46.70
34143;DHT22;20419;10.658;106.724;2022-08-01T15:57:31;31.50;46.80
34143;DHT22;20419;10.658;106.724;2022-08-01T16:02:24;31.60;47.40
34143;DHT22;20419;10.658;106.724;2022-08-01T16:04:51;31.50;47.50
34143;DHT22;20419;10.658;106.724;2022-08-01T16:12:10;31.60;48.20
34143;DHT22;20419;10.658;106.724;2022-08-01T16:14:37;31.60;48.40
34143;DHT22;20419;10.658;106.724;2022-08-01T16:19:30;31.70;48.80
34143;DHT22;20419;10.658;106.724;2022-08-01T16:21:57;31.60;48.90
34143;DHT22;20419;10.658;106.724;2022-08-01T16:24:23;31.60;47.60
34143;DHT22;20419;10.658;106.724;2022-08-01T16:29:20;31.60;49.40
34143;DHT22;20419;10.658;106.724;2022-08-01T16:36:40;31.70;50.00
34143;DHT22;20419;10.658;106.724;2022-08-01T16:39:07;31.70;50.20
34143;DHT22;20419;10.658;106.724;2022-08-01T16:41:33;31.70;50.20
34143;DHT22;20419;10.658;106.724;2022-08-01T16:44:00;31.80;49.30
34143;DHT22;20419;10.658;106.724;2022-08-01T16:46:27;31.70;50.60
34143;DHT22;20419;10.658;106.724;2022-08-01T16:51:20;31.80;50.90
34143;DHT22;20419;10.658;106.724;2022-08-01T16:53:47;31.80;50.60
34143;DHT22;20419;10.658;106.724;2022-08-01T16:56:14;31.80;51.20
34143;DHT22;20419;10.658;106.724;2022-08-01T17:01:07;31.80;49.80
34143;DHT22;20419;10.658;106.724;2022-08-01T17:03:34;31.80;51.60
34143;DHT22;20419;10.658;106.724;2022-08-01T17:06:00;31.80;51.50
34143;DHT22;20419;10.658;106.724;2022-08-01T17:08:27;31.90;51.80
34143;DHT22;20419;10.658;106.724;2022-08-01T17:10:54;31.80;51.90
34143;DHT22;20419;10.658;106.724;2022-08-01T17:13:21;31.80;51.90
34143;DHT22;20419;10.658;106.724;2022-08-01T17:18:15;31.80;52.20
34143;DHT22;20419;10.658;106.724;2022-08-01T17:20:43;31.80;52.30
34143;DHT22;20419;10.658;106.724;2022-08-01T17:23:15;31.80;52.40
34143;DHT22;20419;10.658;106.724;2022-08-01T17:28:08;31.80;52.60
34143;DHT22;20419;10.658;106.724;2022-08-01T17:42:51;32.00;53.20
34143;DHT22;20419;10.658;106.724;2022-08-01T17:45:18;32.00;53.20
34143;DHT22;20419;10.658;106.724;2022-08-01T17:47:45;31.90;53.10
34143;DHT22;20419;10.658;106.724;2022-08-01T17:50:11;31.80;52.90
34143;DHT22;20419;10.658;106.724;2022-08-01T17:52:38;31.90;52.70
34143;DHT22;20419;10.658;106.724;2022-08-01T17:55:06;31.90;52.40
34143;DHT22;20419;10.658;106.724;2022-08-01T17:57:32;31.80;52.20
34143;DHT22;20419;10.658;106.724;2022-08-01T17:59:59;31.80;52.10
34143;DHT22;20419;10.658;106.724;2022-08-01T18:02:26;31.80;52.10
34143;DHT22;20419;10.658;106.724;2022-08-01T18:04:53;31.70;52.00
34143;DHT22;20419;10.658;106.724;2022-08-01T18:07:20;31.80;52.10
34143;DHT22;20419;10.658;106.724;2022-08-01T18:09:47;31.80;52.10
34143;DHT22;20419;10.658;106.724;2022-08-01T18:12:14;31.70;52.00
34143;DHT22;20419;10.658;106.724;2022-08-01T18:14:41;31.80;52.00
34143;DHT22;20419;10.658;106.724;2022-08-01T18:17:08;31.70;52.00
34143;DHT22;20419;10.658;106.724;2022-08-01T18:19:35;31.70;52.00
34143;DHT22;20419;10.658;106.724;2022-08-01T18:22:02;31.70;52.10
34143;DHT22;20419;10.658;106.724;2022-08-01T18:24:29;31.70;52.00
34143;DHT22;20419;10.658;106.724;2022-08-01T18:26:55;31.70;52.00
34143;DHT22;20419;10.658;106.724;2022-08-01T18:29:23;31.70;52.00
34143;DHT22;20419;10.658;106.724;2022-08-01T18:34:17;31.70;51.90
34143;DHT22;20419;10.658;106.724;2022-08-01T18:36:44;31.60;51.90
34143;DHT22;20419;10.658;106.724;2022-08-01T18:39:10;31.60;51.90
34143;DHT22;20419;10.658;106.724;2022-08-01T18:41:38;31.60;52.00
34143;DHT22;20419;10.658;106.724;2022-08-01T18:44:05;31.60;52.00
34143;DHT22;20419;10.658;106.724;2022-08-01T18:46:32;31.60;51.90
34143;DHT22;20419;10.658;106.724;2022-08-01T18:56:21;31.60;52.10
34143;DHT22;20419;10.658;106.724;2022-08-01T18:58:48;31.60;52.10
34143;DHT22;20419;10.658;106.724;2022-08-01T19:01:14;31.60;52.00
34143;DHT22;20419;10.658;106.724;2022-08-01T19:06:08;31.60;52.10
34143;DHT22;20419;10.658;106.724;2022-08-01T19:08:35;31.60;52.10
34143;DHT22;20419;10.658;106.724;2022-08-01T19:11:03;31.60;52.00
34143;DHT22;20419;10.658;106.724;2022-08-01T19:13:30;31.60;50.20
34143;DHT22;20419;10.658;106.724;2022-08-01T19:15:57;31.60;49.70
34143;DHT22;20419;10.658;106.724;2022-08-01T19:18:25;31.60;51.90
34143;DHT22;20419;10.658;106.724;2022-08-01T19:20:53;31.50;51.90
34143;DHT22;20419;10.658;106.724;2022-08-01T19:23:20;31.50;51.80
34143;DHT22;20419;10.658;106.724;2022-08-01T19:26:04;31.60;51.80
34143;DHT22;20419;10.658;106.724;2022-08-01T19:28:44;31.60;51.80
34143;DHT22;20419;10.658;106.724;2022-08-01T19:31:14;31.60;51.80
34143;DHT22;20419;10.658;106.724;2022-08-01T19:33:41;31.60;51.90
34143;DHT22;20419;10.658;106.724;2022-08-01T19:36:11;31.60;51.80
34143;DHT22;20419;10.658;106.724;2022-08-01T19:38:40;31.60;51.80
34143;DHT22;20419;10.658;106.724;2022-08-01T19:43:34;31.60;50.50
34143;DHT22;20419;10.658;106.724;2022-08-01T19:46:02;31.60;51.90
34143;DHT22;20419;10.658;106.724;2022-08-01T19:50:58;31.40;51.80
34143;DHT22;20419;10.658;106.724;2022-08-01T19:53:27;31.50;51.70
34143;DHT22;20419;10.658;106.724;2022-08-01T19:55:54;31.50;51.80
34143;DHT22;20419;10.658;106.724;2022-08-01T19:58:24;31.50;51.70
34143;DHT22;20419;10.658;106.724;2022-08-01T20:03:17;31.50;51.70
34143;DHT22;20419;10.658;106.724;2022-08-01T20:05:44;31.60;51.90
34143;DHT22;20419;10.658;106.724;2022-08-01T20:08:11;31.50;51.80
34143;DHT22;20419;10.658;106.724;2022-08-01T20:13:04;31.50;51.70
34143;DHT22;20419;10.658;106.724;2022-08-01T20:17:58;31.50;50.90
34143;DHT22;20419;10.658;106.724;2022-08-01T20:20:25;31.50;51.80
34143;DHT22;20419;10.658;106.724;2022-08-01T20:25:19;31.50;51.80
34143;DHT22;20419;10.658;106.724;2022-08-01T20:30:12;31.40;51.80
34143;DHT22;20419;10.658;106.724;2022-08-01T20:32:39;31.50;51.80
34143;DHT22;20419;10.658;106.724;2022-08-01T20:35:06;31.50;51.80
34143;DHT22;20419;10.658;106.724;2022-08-01T20:37:33;31.50;51.80
34143;DHT22;20419;10.658;106.724;2022-08-01T20:40:02;31.40;51.40
34143;DHT22;20419;10.658;106.724;2022-08-01T20:42:28;31.50;51.80
34143;DHT22;20419;10.658;106.724;2022-08-01T20:47:23;31.50;51.90
34143;DHT22;20419;10.658;106.724;2022-08-01T20:49:50;31.50;49.90
34143;DHT22;20419;10.658;106.724;2022-08-01T20:52:17;31.50;51.90